Terminal Aerodrome Forecast
Issued by NWS

Home | Current Version | Previous Version | Text Only | Print | Product List | Glossary On
Versions: 1 2 3 4 5 6 7 8 9 10 11 12 13 14 15 16 17 18 19
810
FTAK31 PAJN 291140
TAFAYA
TAF
PAYA 291140Z 2912/3012 VRB03KT 4SM BR SCT001 SCT040
      TEMPO 2912/2916 00000KT 1SM BR BKN001
     FM291700 29005KT P6SM SCT060
     FM292100 29007KT P6SM FEW120
      AMD LTD TO CLD AND WIND 3001/3009=

USA.gov is the U.S. government's official web portal to all federal, state and local government web resources and services.